createdAt,value
2022-09-23T00:02:38.147Z,101712.78
2022-09-23T00:05:23.452Z,101712.16
2022-09-23T00:08:11.581Z,101719.91
2022-09-23T00:10:57.281Z,101710.72
2022-09-23T00:13:44.931Z,101723.88
2022-09-23T00:16:33.982Z,101710.63
2022-09-23T00:19:19.403Z,101690.13
2022-09-23T00:22:05.043Z,101713.03
2022-09-23T00:24:50.664Z,101702.00
2022-09-23T00:27:36.701Z,101703.75
2022-09-23T00:30:23.594Z,101709.69
2022-09-23T00:33:09.289Z,101709.66
2022-09-23T00:35:59.195Z,101713.56
2022-09-23T00:38:45.256Z,101711.16
2022-09-23T00:41:30.607Z,101704.78
2022-09-23T00:44:46.213Z,101697.09
2022-09-23T00:47:53.171Z,101685.81
2022-09-23T00:50:42.998Z,101692.09
2022-09-23T00:53:28.776Z,101692.69
2022-09-23T00:56:14.420Z,101689.94
2022-09-23T00:59:01.785Z,101685.88
2022-09-23T01:01:49.863Z,101691.09
2022-09-23T01:04:36.296Z,101683.19
2022-09-23T01:07:21.755Z,101671.16
2022-09-23T01:10:08.704Z,101675.78
2022-09-23T01:13:12.840Z,101669.41
2022-09-23T01:16:29.103Z,101668.59
2022-09-23T01:19:52.847Z,101669.56
2022-09-23T01:22:51.922Z,101669.78
2022-09-23T01:25:59.895Z,101663.25
2022-09-23T01:29:06.352Z,101652.22
2022-09-23T01:32:17.602Z,101665.31
2022-09-23T01:35:09.116Z,101651.91
2022-09-23T01:38:15.826Z,101648.47
2022-09-23T01:41:08.821Z,101648.13
2022-09-23T01:44:09.483Z,101639.25
2022-09-23T01:47:02.363Z,101649.94
2022-09-23T01:49:56.095Z,101633.78
2022-09-23T01:52:47.213Z,101629.88
2022-09-23T01:55:40.279Z,101638.38
2022-09-23T01:58:39.596Z,101635.34
2022-09-23T02:01:32.948Z,101636.91
2022-09-23T02:04:23.741Z,101629.69
2022-09-23T02:07:22.212Z,101619.47
2022-09-23T02:10:15.601Z,101639.56
2022-09-23T02:13:08.372Z,101620.41
2022-09-23T02:15:58.704Z,101615.28
2022-09-23T02:18:58.181Z,101621.00
2022-09-23T02:21:50.195Z,101626.09
2022-09-23T02:24:38.437Z,101614.34
2022-09-23T02:27:30.319Z,101615.09
2022-09-23T02:30:21.078Z,101614.25
2022-09-23T02:33:34.287Z,101589.09
2022-09-23T02:36:29.584Z,101613.72
2022-09-23T02:39:19.556Z,101601.28
2022-09-23T02:42:15.264Z,101595.09
2022-09-23T02:45:00.687Z,101588.41
2022-09-23T02:47:52.781Z,101590.09
2022-09-23T02:50:38.772Z,101587.00
2022-09-23T02:53:24.621Z,101586.81
2022-09-23T02:56:19.557Z,101592.69
2022-09-23T02:59:06.149Z,101586.69
2022-09-23T03:02:13.601Z,101586.69
2022-09-23T03:05:08.236Z,101580.69
2022-09-23T03:08:10.250Z,101573.78
2022-09-23T03:11:07.065Z,101566.22
2022-09-23T03:14:17.994Z,101566.75
2022-09-23T03:17:10.985Z,101570.84
2022-09-23T03:20:06.514Z,101567.97
2022-09-23T03:23:00.741Z,101562.94
2022-09-23T03:25:49.265Z,101552.41
2022-09-23T03:28:38.806Z,101554.13
2022-09-23T03:31:24.529Z,101563.31
2022-09-23T03:34:24.143Z,101554.56
2022-09-23T03:37:26.978Z,101547.69
2022-09-23T03:40:21.041Z,101551.88
2022-09-23T03:43:06.903Z,101542.34
2022-09-23T03:45:56.920Z,101544.22
2022-09-23T03:48:42.361Z,101535.56
2022-09-23T03:51:27.967Z,101539.66
2022-09-23T03:54:13.667Z,101538.28
2022-09-23T03:57:00.625Z,101539.88
2022-09-23T03:59:46.216Z,101534.53
2022-09-23T04:02:32.097Z,101535.34
2022-09-23T04:05:17.955Z,101522.25
2022-09-23T04:08:03.714Z,101529.59
2022-09-23T04:10:52.891Z,101515.16
2022-09-23T04:13:40.453Z,101524.38
2022-09-23T04:16:26.139Z,101516.25
2022-09-23T04:19:12.631Z,101524.78
2022-09-23T04:21:58.014Z,101501.31
2022-09-23T04:24:43.802Z,101487.88
2022-09-23T04:27:30.570Z,101514.56
2022-09-23T04:30:18.610Z,101506.47
2022-09-23T04:33:04.345Z,101508.66
2022-09-23T04:35:53.017Z,101512.13
2022-09-23T04:38:38.595Z,101512.88
2022-09-23T04:41:24.358Z,101501.31
2022-09-23T04:44:11.692Z,101498.75
2022-09-23T04:46:57.097Z,101505.03
2022-09-23T04:49:42.435Z,101499.84
2022-09-23T04:52:29.855Z,101500.69
2022-09-23T04:55:15.420Z,101491.25
2022-09-23T04:58:01.158Z,101504.66
2022-09-23T05:00:47.307Z,101510.38
2022-09-23T05:03:35.793Z,101501.44
2022-09-23T05:06:21.920Z,101502.03
2022-09-23T05:09:08.428Z,101503.78
2022-09-23T05:11:54.053Z,101494.75
2022-09-23T05:14:39.532Z,101488.44
2022-09-23T05:17:25.369Z,101491.06
2022-09-23T05:20:11.544Z,101491.75
2022-09-23T05:22:57.065Z,101485.75
2022-09-23T05:25:43.256Z,101500.88
2022-09-23T05:28:32.783Z,101491.34
2022-09-23T05:31:21.447Z,101497.16
2022-09-23T05:34:07.123Z,101471.28
2022-09-23T05:36:52.748Z,101495.06
2022-09-23T05:39:38.411Z,101486.63
2022-09-23T05:42:24.079Z,101482.06
2022-09-23T05:45:09.778Z,101470.97
2022-09-23T05:47:55.018Z,101479.56
2022-09-23T05:50:48.760Z,101479.63
2022-09-23T05:53:34.176Z,101480.34
2022-09-23T05:56:22.809Z,101487.38
2022-09-23T05:59:08.142Z,101480.06
2022-09-23T06:01:56.426Z,101495.72
2022-09-23T06:04:42.972Z,101478.53
2022-09-23T06:07:28.413Z,101478.38
2022-09-23T06:10:13.989Z,101495.91
2022-09-23T06:12:59.401Z,101500.44
2022-09-23T06:15:44.844Z,101497.09
2022-09-23T06:18:30.101Z,101492.03
2022-09-23T06:21:17.017Z,101471.31
2022-09-23T06:24:05.524Z,101496.31
2022-09-23T06:26:51.041Z,101489.06
2022-09-23T06:29:36.867Z,101498.19
2022-09-23T06:32:23.027Z,101499.19
2022-09-23T06:35:21.494Z,101489.22
2022-09-23T06:38:09.961Z,101495.38
2022-09-23T06:40:57.453Z,101494.53
2022-09-23T06:43:42.787Z,101495.66
2022-09-23T06:46:28.300Z,101494.75
2022-09-23T06:49:14.027Z,101488.25
2022-09-23T06:51:59.545Z,101483.84
2022-09-23T06:54:45.398Z,101487.22
2022-09-23T06:57:32.645Z,101490.81
2022-09-23T07:00:19.145Z,101490.06
2022-09-23T07:03:08.542Z,101486.78
2022-09-23T07:05:57.665Z,101468.06
2022-09-23T07:08:44.862Z,101480.78
2022-09-23T07:11:30.233Z,101479.19
2022-09-23T07:14:15.563Z,101478.47
2022-09-23T07:17:01.073Z,101484.03
2022-09-23T07:19:46.756Z,101472.53
2022-09-23T07:22:32.369Z,101481.63
2022-09-23T07:25:18.979Z,101486.00
2022-09-23T07:28:05.348Z,101485.00
2022-09-23T07:30:58.896Z,101486.19
2022-09-23T07:33:45.248Z,101472.84
2022-09-23T07:36:33.165Z,101470.53
2022-09-23T07:39:18.340Z,101486.38
2022-09-23T07:42:05.196Z,101483.28
2022-09-23T07:44:50.784Z,101475.88
2022-09-23T07:47:36.349Z,101479.13
2022-09-23T07:50:22.514Z,101484.31
2022-09-23T07:53:08.467Z,101481.16
2022-09-23T07:55:55.963Z,101473.31
2022-09-23T07:58:41.336Z,101469.63
2022-09-23T08:01:29.331Z,101469.41
2022-09-23T08:04:23.335Z,101470.72
2022-09-23T08:07:09.245Z,101473.44
2022-09-23T08:09:54.813Z,101477.06
2022-09-23T08:12:40.239Z,101473.25
2022-09-23T08:15:27.040Z,101482.50
2022-09-23T08:18:12.487Z,101475.84
2022-09-23T08:20:58.128Z,101471.91
2022-09-23T08:23:43.870Z,101475.59
2022-09-23T08:26:29.425Z,101471.03
2022-09-23T08:29:17.861Z,101475.31
2022-09-23T08:32:03.240Z,101462.28
2022-09-23T08:34:51.975Z,101471.66
2022-09-23T08:37:37.581Z,101462.78
2022-09-23T08:40:24.108Z,101467.19
2022-09-23T08:43:36.757Z,101462.03
2022-09-23T08:46:31.140Z,101458.00
2022-09-23T08:49:26.117Z,101454.44
2022-09-23T08:52:32.614Z,101462.25
2022-09-23T08:55:19.543Z,101445.47
2022-09-23T08:58:26.255Z,101451.63
2022-09-23T09:01:43.284Z,101447.53
2022-09-23T09:04:42.865Z,101419.13
2022-09-23T09:07:37.713Z,101437.88
2022-09-23T09:10:28.289Z,101439.97
2022-09-23T09:13:43.059Z,101443.47
2022-09-23T09:17:00.724Z,101426.13
2022-09-23T09:19:55.962Z,101435.72
2022-09-23T09:22:52.925Z,101437.69
2022-09-23T09:25:49.432Z,101424.34
2022-09-23T09:28:49.063Z,101434.09
2022-09-23T09:31:48.620Z,101426.50
2022-09-23T09:34:54.555Z,101420.84
2022-09-23T09:37:46.774Z,101393.03
2022-09-23T09:40:32.924Z,101406.47
2022-09-23T09:43:25.318Z,101406.16
2022-09-23T09:46:25.671Z,101402.97
2022-09-23T09:49:26.199Z,101402.78
2022-09-23T09:52:22.536Z,101401.56
2022-09-23T09:55:13.732Z,101398.69
2022-09-23T09:58:05.737Z,101385.75
2022-09-23T10:00:52.666Z,101386.28
2022-09-23T10:03:41.291Z,101372.78
2022-09-23T10:06:30.197Z,101374.53
2022-09-23T10:09:19.239Z,101361.09
2022-09-23T10:12:15.367Z,101367.44
2022-09-23T10:15:01.017Z,101366.84
2022-09-23T10:17:51.207Z,101355.63
2022-09-23T10:20:38.169Z,101359.41
2022-09-23T10:23:28.142Z,101369.63
2022-09-23T10:26:18.445Z,101366.75
2022-09-23T10:29:22.858Z,101347.50
2022-09-23T10:32:29.998Z,101352.72
2022-09-23T10:35:23.796Z,101356.16
2022-09-23T10:38:10.479Z,101339.75
2022-09-23T10:41:15.109Z,101354.47
2022-09-23T10:44:57.109Z,101356.19
2022-09-23T10:47:57.618Z,101337.19
2022-09-23T10:50:48.990Z,101346.56
2022-09-23T10:54:08.690Z,101329.25
2022-09-23T10:57:41.096Z,101339.59
2022-09-23T11:00:59.166Z,101331.56
2022-09-23T11:04:00.023Z,101319.38
2022-09-23T11:07:17.124Z,101324.53
2022-09-23T11:10:46.586Z,101322.44
2022-09-23T11:13:35.070Z,101308.25
2022-09-23T11:16:44.602Z,101300.97
2022-09-23T11:20:09.469Z,101305.03
2022-09-23T11:22:54.826Z,101304.44
2022-09-23T11:26:09.569Z,101290.31
2022-09-23T11:29:16.520Z,101280.75
2022-09-23T11:32:27.542Z,101272.13
2022-09-23T11:35:34.102Z,101263.13
2022-09-23T11:38:25.945Z,101269.00
2022-09-23T11:41:25.633Z,101261.53
2022-09-23T11:44:20.170Z,101260.75
2022-09-23T11:47:21.027Z,101251.47
2022-09-23T11:50:28.520Z,101247.06
2022-09-23T11:53:34.313Z,101240.09
2022-09-23T11:56:35.720Z,101235.66
2022-09-23T11:59:41.082Z,101246.00
2022-09-23T12:03:06.604Z,101229.19
2022-09-23T12:06:05.361Z,101231.38
2022-09-23T12:08:58.968Z,101237.91
2022-09-23T12:11:53.593Z,101217.06
2022-09-23T12:14:51.805Z,101222.66
2022-09-23T12:17:58.852Z,101213.56
2022-09-23T12:21:38.736Z,101218.00
2022-09-23T12:24:45.843Z,101218.03
2022-09-23T12:27:39.774Z,101213.91
2022-09-23T12:30:28.247Z,101206.91
2022-09-23T12:33:24.358Z,101213.66
2022-09-23T12:36:12.100Z,101206.47
2022-09-23T12:39:15.036Z,101213.81
2022-09-23T12:42:03.409Z,101215.22
2022-09-23T12:44:49.565Z,101212.63
2022-09-23T12:47:38.687Z,101199.31
2022-09-23T12:50:47.493Z,101201.81
2022-09-23T12:53:33.244Z,101203.69
2022-09-23T12:56:24.657Z,101198.06
2022-09-23T12:59:17.271Z,101196.34
2022-09-23T13:02:27.354Z,101203.28
2022-09-23T13:05:40.907Z,101182.59
2022-09-23T13:08:26.737Z,101181.75
2022-09-23T13:11:30.791Z,101188.19
2022-09-23T13:14:26.726Z,101197.56
2022-09-23T13:17:31.916Z,101191.63
2022-09-23T13:20:20.516Z,101193.19
2022-09-23T13:23:24.238Z,101179.38
2022-09-23T13:26:13.343Z,101181.31
2022-09-23T13:28:59.174Z,101173.97
2022-09-23T13:31:46.248Z,101175.03
2022-09-23T13:34:34.490Z,101189.13
2022-09-23T13:37:23.139Z,101165.28
2022-09-23T13:40:17.372Z,101169.13
2022-09-23T13:43:10.893Z,101167.78
2022-09-23T13:45:56.527Z,101155.03
2022-09-23T13:48:45.146Z,101161.06
2022-09-23T13:51:33.871Z,101157.38
2022-09-23T13:54:54.585Z,101150.41
2022-09-23T13:57:40.019Z,101161.34
2022-09-23T14:00:25.770Z,101151.78
2022-09-23T14:03:26.889Z,101156.69
2022-09-23T14:06:17.397Z,101148.97
2022-09-23T14:09:02.751Z,101153.69
2022-09-23T14:11:50.155Z,101145.22
2022-09-23T14:14:37.521Z,101155.59
2022-09-23T14:17:23.388Z,101131.09
2022-09-23T14:20:15.026Z,101139.00
2022-09-23T14:23:10.878Z,101123.25
2022-09-23T14:25:57.750Z,101139.66
2022-09-23T14:28:43.121Z,101127.56
2022-09-23T14:31:28.539Z,101137.81
2022-09-23T14:34:51.420Z,101138.31
2022-09-23T14:37:55.210Z,101142.66
2022-09-23T14:40:53.487Z,101136.09
2022-09-23T14:43:38.981Z,101127.75
2022-09-23T14:46:27.477Z,101133.00
2022-09-23T14:49:12.763Z,101132.53
2022-09-23T14:52:06.797Z,101119.66
2022-09-23T14:54:53.229Z,101121.44
2022-09-23T14:57:39.551Z,101108.03
2022-09-23T15:00:25.713Z,101127.63
2022-09-23T15:03:16.309Z,101136.03
2022-09-23T15:06:08.731Z,101111.31
2022-09-23T15:08:55.728Z,101124.66
2022-09-23T15:11:41.233Z,101105.06
2022-09-23T15:14:44.912Z,101117.72
2022-09-23T15:17:34.428Z,101107.69
2022-09-23T15:20:25.397Z,101105.94
2022-09-23T15:23:32.209Z,101113.53
2022-09-23T15:26:20.702Z,101105.66
2022-09-23T15:29:09.675Z,101098.44
2022-09-23T15:31:55.436Z,101103.88
2022-09-23T15:34:40.756Z,101110.53
2022-09-23T15:37:26.434Z,101108.13
2022-09-23T15:40:26.684Z,101114.06
2022-09-23T15:43:23.143Z,101111.53
2022-09-23T15:46:20.980Z,101102.56
2022-09-23T15:49:16.128Z,101104.88
2022-09-23T15:52:02.846Z,101104.41
2022-09-23T15:54:48.464Z,101107.44
2022-09-23T15:57:34.024Z,101099.06
2022-09-23T16:00:19.770Z,101104.72
2022-09-23T16:03:06.503Z,101101.41
2022-09-23T16:05:52.016Z,101092.97
2022-09-23T16:08:38.981Z,101103.47
2022-09-23T16:11:30.996Z,101076.63
2022-09-23T16:14:17.680Z,101094.84
2022-09-23T16:17:03.547Z,101092.06
2022-09-23T16:19:49.286Z,101081.44
2022-09-23T16:22:34.515Z,101090.44
2022-09-23T16:25:22.589Z,101087.19
2022-09-23T16:28:09.481Z,101090.28
2022-09-23T16:30:54.949Z,101099.72
2022-09-23T16:33:40.579Z,101086.63
2022-09-23T16:36:31.029Z,101078.31
2022-09-23T16:39:16.292Z,101074.94
2022-09-23T16:42:02.095Z,101091.84
2022-09-23T16:44:47.595Z,101091.47
2022-09-23T16:47:33.409Z,101093.91
2022-09-23T16:50:22.630Z,101102.28
2022-09-23T16:53:08.352Z,101094.38
2022-09-23T16:55:53.970Z,101098.72
2022-09-23T16:58:40.291Z,101090.09
2022-09-23T17:01:47.471Z,101084.19
2022-09-23T17:04:32.920Z,101085.56
2022-09-23T17:07:18.913Z,101092.69
2022-09-23T17:10:04.753Z,101086.84
2022-09-23T17:12:50.483Z,101086.63
2022-09-23T17:15:40.933Z,101077.72
2022-09-23T17:18:26.888Z,101081.63
2022-09-23T17:21:12.614Z,101083.66
2022-09-23T17:23:58.162Z,101075.16
2022-09-23T17:26:50.719Z,101080.16
2022-09-23T17:29:38.496Z,101087.34
2022-09-23T17:32:24.034Z,101084.16
2022-09-23T17:35:10.407Z,101078.31
2022-09-23T17:37:56.145Z,101075.75
2022-09-23T17:40:42.072Z,101076.91
2022-09-23T17:43:29.049Z,101075.78
2022-09-23T17:46:18.142Z,101082.00
2022-09-23T17:49:03.817Z,101073.56
2022-09-23T17:51:49.391Z,101079.19
2022-09-23T17:54:36.444Z,101075.19
2022-09-23T17:57:22.081Z,101087.19
2022-09-23T18:00:09.974Z,101089.59
2022-09-23T18:02:55.608Z,101085.38
2022-09-23T18:05:40.887Z,101085.22
2022-09-23T18:08:30.283Z,101087.47
2022-09-23T18:11:21.398Z,101087.75
2022-09-23T18:14:16.239Z,101082.84
2022-09-23T18:17:01.944Z,101075.50
2022-09-23T18:19:49.132Z,101090.41
2022-09-23T18:22:34.784Z,101085.47
2022-09-23T18:25:38.279Z,101085.38
2022-09-23T18:28:24.836Z,101080.28
2022-09-23T18:31:10.685Z,101085.56
2022-09-23T18:33:56.120Z,101097.53
2022-09-23T18:36:41.497Z,101093.97
2022-09-23T18:39:26.919Z,101089.25
2022-09-23T18:42:13.502Z,101084.25
2022-09-23T18:44:58.760Z,101091.91
2022-09-23T18:48:02.712Z,101085.75
2022-09-23T18:50:49.207Z,101076.69
2022-09-23T18:53:35.835Z,101082.63
2022-09-23T18:56:21.604Z,101087.84
2022-09-23T18:59:09.248Z,101085.38
2022-09-23T19:01:55.994Z,101088.66
2022-09-23T19:04:41.720Z,101077.34
2022-09-23T19:07:27.569Z,101095.94
2022-09-23T19:10:12.950Z,101099.19
2022-09-23T19:12:58.306Z,101100.31
2022-09-23T19:15:43.918Z,101103.84
2022-09-23T19:18:30.542Z,101091.41
2022-09-23T19:21:18.647Z,101090.03
2022-09-23T19:24:07.205Z,101098.09
2022-09-23T19:26:54.012Z,101099.91
2022-09-23T19:29:40.057Z,101104.59
2022-09-23T19:32:26.695Z,101095.47
2022-09-23T19:35:15.838Z,101102.72
2022-09-23T19:38:01.710Z,101095.47
2022-09-23T19:40:51.588Z,101090.19
2022-09-23T19:43:37.412Z,101095.66
2022-09-23T19:46:23.249Z,101088.00
2022-09-23T19:49:08.693Z,101087.72
2022-09-23T19:51:55.841Z,101097.44
2022-09-23T19:54:41.736Z,101095.00
2022-09-23T19:57:29.600Z,101086.41
2022-09-23T20:00:15.294Z,101082.66
2022-09-23T20:03:01.085Z,101084.44
2022-09-23T20:05:57.155Z,101080.25
2022-09-23T20:08:43.789Z,101073.47
2022-09-23T20:11:29.362Z,101078.38
2022-09-23T20:14:15.104Z,101067.25
2022-09-23T20:17:00.488Z,101077.41
2022-09-23T20:19:47.335Z,101061.94
2022-09-23T20:22:34.065Z,101051.16
2022-09-23T20:25:19.759Z,101055.72
2022-09-23T20:28:05.731Z,101041.84
2022-09-23T20:30:51.966Z,101057.78
2022-09-23T20:33:37.718Z,101031.91
2022-09-23T20:36:24.190Z,101039.47
2022-09-23T20:39:10.420Z,101032.69
2022-09-23T20:41:55.847Z,101035.28
2022-09-23T20:44:43.108Z,101044.56
2022-09-23T20:47:28.492Z,101036.91
2022-09-23T20:50:13.888Z,101035.34
2022-09-23T20:52:59.527Z,101033.09
2022-09-23T20:55:50.765Z,101030.44
2022-09-23T20:58:36.523Z,101030.94
2022-09-23T21:01:22.028Z,101028.56
2022-09-23T21:04:08.875Z,101027.56
2022-09-23T21:06:57.404Z,101025.75
2022-09-23T21:09:43.051Z,101020.66
2022-09-23T21:12:28.641Z,101023.38
2022-09-23T21:15:14.278Z,101032.75
2022-09-23T21:17:59.981Z,101036.50
2022-09-23T21:20:54.408Z,101019.00
2022-09-23T21:23:41.356Z,101021.81
2022-09-23T21:26:26.916Z,101025.22
2022-09-23T21:29:13.521Z,101011.59
2022-09-23T21:31:58.849Z,101022.53
2022-09-23T21:34:44.397Z,101007.44
2022-09-23T21:37:30.354Z,101014.56
2022-09-23T21:40:34.818Z,101024.97
2022-09-23T21:43:20.525Z,101023.50
2022-09-23T21:46:09.064Z,101018.94
2022-09-23T21:48:58.651Z,101015.38
2022-09-23T21:51:44.346Z,101015.19
2022-09-23T21:54:31.126Z,101022.03
2022-09-23T21:57:16.811Z,101027.63
2022-09-23T22:00:02.667Z,101024.78
2022-09-23T22:02:47.930Z,101027.69
2022-09-23T22:05:33.399Z,101024.91
2022-09-23T22:08:18.772Z,101034.06
2022-09-23T22:11:06.930Z,101032.63
2022-09-23T22:13:53.064Z,101037.13
2022-09-23T22:16:39.770Z,101011.91
2022-09-23T22:19:27.210Z,101033.63
2022-09-23T22:22:14.414Z,101017.25
2022-09-23T22:24:59.998Z,101022.25
2022-09-23T22:28:03.850Z,101019.81
2022-09-23T22:31:07.897Z,101026.00
2022-09-23T22:33:53.460Z,101008.56
2022-09-23T22:36:39.215Z,101021.56
2022-09-23T22:39:25.634Z,101010.25
2022-09-23T22:42:12.916Z,101016.66
2022-09-23T22:44:58.821Z,101017.00
2022-09-23T22:47:45.528Z,101012.69
2022-09-23T22:50:31.309Z,101011.59
2022-09-23T22:53:16.986Z,101010.81
2022-09-23T22:56:02.290Z,101007.75
2022-09-23T22:58:47.673Z,101004.44
2022-09-23T23:01:34.382Z,101011.13
2022-09-23T23:04:20.031Z,101005.19
2022-09-23T23:07:05.995Z,101007.06
2022-09-23T23:09:52.537Z,101005.78
2022-09-23T23:12:38.587Z,100998.63
2022-09-23T23:15:24.242Z,100995.84
2022-09-23T23:18:09.746Z,101000.91
2022-09-23T23:20:56.322Z,100982.41
2022-09-23T23:23:47.033Z,100999.59
2022-09-23T23:26:34.069Z,100972.75
2022-09-23T23:29:21.210Z,100984.81
2022-09-23T23:32:07.574Z,100998.56
2022-09-23T23:34:52.979Z,100996.97
2022-09-23T23:37:38.296Z,100995.88
2022-09-23T23:40:23.697Z,100982.06
2022-09-23T23:43:09.260Z,100985.91
2022-09-23T23:45:56.198Z,100991.94
2022-09-23T23:48:48.012Z,100987.94
2022-09-23T23:51:33.476Z,100988.88
2022-09-23T23:54:18.941Z,100996.28
2022-09-23T23:57:04.522Z,100988.78
2022-09-23T23:59:50.047Z,100995.59
